createdAt,value
2023-01-23T00:01:32.001Z,3.90
2023-01-23T00:04:00.694Z,3.90
2023-01-23T00:06:29.497Z,3.90
2023-01-23T00:08:58.582Z,3.90
2023-01-23T00:11:30.247Z,3.90
2023-01-23T00:13:59.301Z,3.90
2023-01-23T00:16:30.863Z,3.80
2023-01-23T00:18:59.359Z,3.90
2023-01-23T00:21:29.788Z,3.80
2023-01-23T00:23:59.530Z,3.80
2023-01-23T00:26:30.047Z,3.90
2023-01-23T00:28:58.077Z,3.90
2023-01-23T00:31:28.317Z,3.90
2023-01-23T00:33:59.285Z,3.80
2023-01-23T00:36:30.890Z,3.80
2023-01-23T00:38:59.255Z,3.90
2023-01-23T00:41:27.834Z,3.90
2023-01-23T00:43:55.971Z,3.90
2023-01-23T00:46:24.356Z,3.90
2023-01-23T00:48:53.055Z,3.90
2023-01-23T00:51:22.451Z,3.90
2023-01-23T00:53:50.488Z,3.90
2023-01-23T00:56:18.746Z,3.80
2023-01-23T00:58:46.846Z,3.80
2023-01-23T01:01:15.561Z,3.80
2023-01-23T01:03:43.944Z,3.80
2023-01-23T01:06:12.251Z,3.80
2023-01-23T01:08:41.710Z,3.80
2023-01-23T01:11:09.815Z,3.80
2023-01-23T01:13:38.364Z,3.80
2023-01-23T01:16:07.755Z,3.80
2023-01-23T01:18:37.233Z,3.80
2023-01-23T01:21:08.637Z,3.80
2023-01-23T01:23:37.056Z,3.80
2023-01-23T01:26:08.122Z,3.90
2023-01-23T01:28:38.035Z,3.90
2023-01-23T01:31:08.769Z,3.90
2023-01-23T01:33:39.020Z,3.90
2023-01-23T01:36:10.202Z,3.90
2023-01-23T01:38:38.684Z,3.90
2023-01-23T01:41:09.345Z,3.90
2023-01-23T01:43:37.804Z,3.90
2023-01-23T01:46:12.983Z,3.80
2023-01-23T01:48:45.146Z,3.90
2023-01-23T01:51:20.938Z,3.90
2023-01-23T01:53:56.189Z,3.90
2023-01-23T01:56:28.289Z,3.90
2023-01-23T01:58:57.848Z,3.80
2023-01-23T02:01:27.125Z,3.90
2023-01-23T02:03:56.144Z,3.90
2023-01-23T02:06:24.847Z,3.90
2023-01-23T02:08:59.526Z,3.90
2023-01-23T02:11:29.032Z,4.00
2023-01-23T02:13:57.127Z,3.90
2023-01-23T02:16:29.427Z,3.90
2023-01-23T02:19:01.671Z,3.90
2023-01-23T02:21:30.053Z,3.90
2023-01-23T02:24:12.823Z,3.80
2023-01-23T02:26:44.478Z,3.80
2023-01-23T02:29:14.689Z,3.80
2023-01-23T02:31:49.630Z,3.80
2023-01-23T02:34:18.250Z,3.80
2023-01-23T02:36:49.165Z,3.80
2023-01-23T02:39:19.644Z,3.80
2023-01-23T02:41:54.664Z,3.80
2023-01-23T02:44:29.210Z,3.80
2023-01-23T02:47:01.717Z,3.80
2023-01-23T02:49:30.228Z,3.80
2023-01-23T02:51:58.493Z,3.80
2023-01-23T02:54:27.026Z,3.80
2023-01-23T02:56:57.152Z,3.80
2023-01-23T02:59:43.209Z,3.80
2023-01-23T03:02:12.205Z,3.80
2023-01-23T03:04:40.367Z,3.70
2023-01-23T03:07:08.440Z,3.70
2023-01-23T03:09:36.781Z,3.70
2023-01-23T03:12:06.419Z,3.70
2023-01-23T03:14:35.617Z,3.70
2023-01-23T03:17:03.690Z,3.70
2023-01-23T03:19:35.968Z,3.70
2023-01-23T03:22:04.152Z,3.70
2023-01-23T03:24:35.682Z,3.80
2023-01-23T03:27:04.106Z,3.70
2023-01-23T03:29:58.136Z,3.70
2023-01-23T03:32:26.681Z,3.70
2023-01-23T03:34:56.546Z,3.70
2023-01-23T03:37:24.641Z,3.60
2023-01-23T03:40:10.296Z,3.60
2023-01-23T03:42:38.681Z,3.60
2023-01-23T03:45:11.458Z,3.60
2023-01-23T03:47:39.459Z,3.60
2023-01-23T03:50:09.589Z,3.60
2023-01-23T03:52:40.251Z,3.60
2023-01-23T03:55:09.545Z,3.60
2023-01-23T03:57:38.525Z,3.50
2023-01-23T04:00:28.122Z,3.50
2023-01-23T04:03:03.295Z,3.60
2023-01-23T04:05:31.752Z,3.60
2023-01-23T04:08:01.166Z,3.60
2023-01-23T04:10:29.644Z,3.60
2023-01-23T04:13:04.349Z,3.60
2023-01-23T04:15:34.962Z,3.60
2023-01-23T04:18:06.408Z,3.60
2023-01-23T04:20:34.653Z,3.60
2023-01-23T04:23:02.693Z,3.60
2023-01-23T04:25:31.413Z,3.60
2023-01-23T04:27:59.471Z,3.50
2023-01-23T04:30:27.805Z,3.50
2023-01-23T04:32:58.838Z,3.50
2023-01-23T04:35:27.247Z,3.40
2023-01-23T04:37:55.340Z,3.40
2023-01-23T04:40:23.942Z,3.40
2023-01-23T04:42:55.988Z,3.30
2023-01-23T04:45:32.170Z,3.30
2023-01-23T04:48:32.776Z,3.30
2023-01-23T04:51:00.950Z,3.40
2023-01-23T04:53:29.103Z,3.40
2023-01-23T04:56:01.363Z,3.40
2023-01-23T04:58:29.827Z,3.40
2023-01-23T05:01:03.924Z,3.30
2023-01-23T05:03:37.258Z,3.30
2023-01-23T05:06:05.562Z,3.30
2023-01-23T05:08:34.165Z,3.30
2023-01-23T05:11:18.735Z,3.30
2023-01-23T05:13:46.771Z,3.20
2023-01-23T05:16:15.533Z,3.20
2023-01-23T05:19:03.634Z,3.10
2023-01-23T05:21:33.198Z,3.10
2023-01-23T05:24:01.562Z,3.10
2023-01-23T05:26:29.642Z,3.10
2023-01-23T05:28:57.943Z,3.00
2023-01-23T05:31:27.153Z,3.00
2023-01-23T05:34:28.440Z,3.00
2023-01-23T05:36:59.029Z,3.00
2023-01-23T05:39:27.228Z,3.00
2023-01-23T05:41:55.251Z,3.00
2023-01-23T05:44:48.407Z,3.00
2023-01-23T05:47:27.818Z,3.00
2023-01-23T05:49:58.639Z,3.00
2023-01-23T05:52:31.752Z,3.00
2023-01-23T05:54:59.863Z,2.90
2023-01-23T05:57:28.447Z,2.90
2023-01-23T06:00:25.369Z,2.90
2023-01-23T06:03:22.572Z,2.90
2023-01-23T06:06:03.410Z,2.90
2023-01-23T06:08:31.483Z,2.90
2023-01-23T06:10:59.823Z,2.90
2023-01-23T06:13:28.638Z,2.90
2023-01-23T06:15:57.971Z,2.90
2023-01-23T06:18:27.413Z,2.80
2023-01-23T06:20:59.292Z,2.80
2023-01-23T06:23:29.583Z,2.90
2023-01-23T06:26:02.088Z,2.90
2023-01-23T06:28:30.777Z,2.80
2023-01-23T06:31:03.841Z,2.80
2023-01-23T06:33:39.997Z,2.80
2023-01-23T06:36:12.112Z,2.80
2023-01-23T06:38:41.607Z,2.80
2023-01-23T06:41:12.870Z,2.80
2023-01-23T06:43:48.988Z,2.80
2023-01-23T06:46:22.366Z,2.90
2023-01-23T06:48:50.464Z,2.90
2023-01-23T06:51:19.201Z,2.90
2023-01-23T06:53:50.345Z,2.90
2023-01-23T06:56:18.623Z,3.00
2023-01-23T06:58:48.724Z,3.00
2023-01-23T07:01:27.403Z,3.00
2023-01-23T07:04:13.593Z,3.00
2023-01-23T07:06:43.556Z,3.00
2023-01-23T07:09:14.325Z,3.20
2023-01-23T07:11:45.999Z,3.10
2023-01-23T07:14:15.329Z,3.20
2023-01-23T07:16:45.148Z,3.20
2023-01-23T07:19:13.335Z,3.20
2023-01-23T07:21:43.217Z,3.20
2023-01-23T07:24:11.583Z,3.20
2023-01-23T07:26:40.981Z,3.20
2023-01-23T07:29:09.822Z,3.20
2023-01-23T07:31:38.304Z,3.20
2023-01-23T07:34:06.377Z,3.30
2023-01-23T07:36:34.337Z,3.30
2023-01-23T07:39:02.414Z,3.40
2023-01-23T07:41:30.421Z,3.40
2023-01-23T07:44:04.776Z,3.40
2023-01-23T07:46:32.826Z,3.40
2023-01-23T07:49:00.806Z,3.40
2023-01-23T07:51:28.871Z,3.40
2023-01-23T07:53:56.946Z,3.50
2023-01-23T07:56:24.945Z,3.50
2023-01-23T07:58:54.757Z,3.50
2023-01-23T08:01:25.439Z,3.60
2023-01-23T08:03:54.291Z,3.60
2023-01-23T08:06:22.334Z,3.70
2023-01-23T08:08:50.808Z,3.70
2023-01-23T08:11:18.893Z,3.80
2023-01-23T08:13:50.481Z,3.80
2023-01-23T08:16:19.053Z,3.80
2023-01-23T08:18:48.427Z,3.80
2023-01-23T08:21:16.473Z,3.80
2023-01-23T08:23:45.815Z,3.90
2023-01-23T08:26:15.909Z,3.90
2023-01-23T08:28:44.652Z,3.90
2023-01-23T08:31:14.186Z,3.90
2023-01-23T08:33:42.445Z,3.90
2023-01-23T08:36:14.079Z,4.00
2023-01-23T08:38:42.663Z,4.00
2023-01-23T08:41:12.491Z,4.00
2023-01-23T08:43:41.697Z,4.00
2023-01-23T08:46:10.643Z,4.10
2023-01-23T08:48:38.972Z,4.10
2023-01-23T08:51:09.285Z,4.10
2023-01-23T08:53:38.707Z,4.10
2023-01-23T08:56:09.515Z,4.10
2023-01-23T08:58:37.620Z,4.10
2023-01-23T09:01:06.113Z,4.10
2023-01-23T09:03:34.255Z,4.10
2023-01-23T09:06:02.839Z,4.20
2023-01-23T09:08:30.900Z,4.20
2023-01-23T09:11:03.146Z,4.20
2023-01-23T09:13:31.181Z,4.20
2023-01-23T09:15:59.208Z,4.20
2023-01-23T09:18:27.370Z,4.20
2023-01-23T09:20:55.846Z,4.20
2023-01-23T09:23:24.334Z,4.20
2023-01-23T09:25:52.531Z,4.20
2023-01-23T09:28:21.875Z,4.30
2023-01-23T09:30:49.953Z,4.30
2023-01-23T09:33:18.057Z,4.30
2023-01-23T09:35:46.243Z,4.40
2023-01-23T09:38:14.274Z,4.40
2023-01-23T09:40:49.926Z,4.40
2023-01-23T09:43:24.344Z,4.40
2023-01-23T09:46:00.031Z,4.50
2023-01-23T09:48:32.886Z,4.40
2023-01-23T09:51:05.881Z,4.50
2023-01-23T09:53:37.229Z,4.50
2023-01-23T09:56:12.242Z,4.60
2023-01-23T09:58:47.218Z,4.60
2023-01-23T10:01:15.282Z,4.60
2023-01-23T10:03:44.514Z,4.70
2023-01-23T10:06:24.469Z,4.60
2023-01-23T10:09:27.907Z,4.60
2023-01-23T10:12:02.511Z,4.60
2023-01-23T10:14:55.637Z,4.60
2023-01-23T10:17:30.725Z,4.60
2023-01-23T10:20:17.527Z,4.70
2023-01-23T10:22:52.173Z,4.60
2023-01-23T10:25:23.400Z,4.60
2023-01-23T10:27:52.746Z,4.70
2023-01-23T10:30:29.675Z,4.70
2023-01-23T10:33:00.352Z,4.70
2023-01-23T10:35:37.332Z,4.80
2023-01-23T10:38:13.366Z,4.80
2023-01-23T10:40:59.640Z,4.80
2023-01-23T10:43:28.307Z,4.80
2023-01-23T10:45:57.705Z,4.90
2023-01-23T10:48:30.897Z,4.90
2023-01-23T10:50:59.168Z,4.90
2023-01-23T10:53:27.628Z,5.00
2023-01-23T10:55:59.076Z,4.90
2023-01-23T10:58:33.751Z,5.00
2023-01-23T11:01:03.597Z,5.00
2023-01-23T11:03:34.141Z,5.10
2023-01-23T11:06:04.885Z,5.10
2023-01-23T11:08:36.097Z,5.10
2023-01-23T11:11:24.945Z,5.20
2023-01-23T11:14:08.954Z,5.20
2023-01-23T11:16:38.617Z,5.20
2023-01-23T11:19:14.003Z,5.20
2023-01-23T11:21:53.557Z,5.20
2023-01-23T11:24:39.254Z,5.20
2023-01-23T11:27:20.219Z,5.20
2023-01-23T11:30:14.317Z,5.30
2023-01-23T11:33:04.382Z,5.30
2023-01-23T11:35:50.877Z,5.30
2023-01-23T11:38:30.570Z,5.30
2023-01-23T11:40:59.331Z,5.30
2023-01-23T11:43:27.409Z,5.30
2023-01-23T11:46:23.420Z,5.40
2023-01-23T11:49:13.731Z,5.40
2023-01-23T11:51:51.937Z,5.30
2023-01-23T11:54:50.486Z,5.30
2023-01-23T11:57:30.323Z,5.40
2023-01-23T12:00:14.142Z,5.50
2023-01-23T12:03:07.217Z,5.50
2023-01-23T12:05:56.824Z,5.60
2023-01-23T12:08:39.311Z,5.60
2023-01-23T12:11:14.168Z,5.70
2023-01-23T12:14:02.464Z,5.70
2023-01-23T12:16:52.302Z,5.80
2023-01-23T12:19:36.897Z,5.80
2023-01-23T12:22:13.732Z,5.80
2023-01-23T12:24:54.487Z,5.70
2023-01-23T12:27:35.277Z,5.70
2023-01-23T12:30:25.355Z,5.80
2023-01-23T12:33:02.840Z,5.80
2023-01-23T12:35:41.975Z,5.70
2023-01-23T12:38:28.293Z,5.80
2023-01-23T12:41:08.940Z,5.90
2023-01-23T12:43:43.462Z,5.90
2023-01-23T12:46:16.545Z,5.90
2023-01-23T12:48:50.287Z,5.90
2023-01-23T12:51:22.055Z,5.80
2023-01-23T12:53:57.520Z,5.80
2023-01-23T12:56:29.915Z,5.80
2023-01-23T12:59:08.999Z,5.80
2023-01-23T13:01:53.697Z,5.80
2023-01-23T13:04:41.048Z,5.80
2023-01-23T13:07:18.911Z,5.90
2023-01-23T13:10:06.125Z,5.90
2023-01-23T13:12:34.949Z,5.90
2023-01-23T13:15:40.006Z,5.90
2023-01-23T13:18:24.013Z,5.90
2023-01-23T13:21:22.636Z,5.80
2023-01-23T13:24:11.128Z,5.80
2023-01-23T13:26:40.461Z,5.80
2023-01-23T13:29:48.793Z,5.80
2023-01-23T13:32:22.971Z,5.80
2023-01-23T13:34:51.094Z,5.80
2023-01-23T13:37:51.434Z,5.80
2023-01-23T13:40:24.977Z,5.80
2023-01-23T13:42:54.488Z,5.80
2023-01-23T13:45:28.332Z,5.90
2023-01-23T14:21:25.509Z,5.90
2023-01-23T14:23:58.031Z,5.90
2023-01-23T14:26:27.699Z,6.00
2023-01-23T14:28:57.498Z,6.00
2023-01-23T14:31:29.568Z,6.00
2023-01-23T14:34:09.864Z,5.90
2023-01-23T14:36:39.414Z,5.90
2023-01-23T14:39:07.594Z,5.80
2023-01-23T14:41:41.600Z,5.80
2023-01-23T14:44:18.387Z,5.80
2023-01-23T14:46:51.718Z,5.90
2023-01-23T14:49:26.268Z,5.90
2023-01-23T14:51:59.560Z,5.90
2023-01-23T14:54:33.020Z,5.70
2023-01-23T14:57:04.518Z,5.70
2023-01-23T14:59:34.947Z,5.70
2023-01-23T15:02:23.630Z,5.60
2023-01-23T15:05:27.378Z,5.60
2023-01-23T15:07:58.719Z,5.50
2023-01-23T15:10:29.509Z,5.50
2023-01-23T15:13:02.259Z,5.50
2023-01-23T15:15:33.144Z,5.40
2023-01-23T15:18:03.796Z,5.50
2023-01-23T15:20:36.536Z,5.50
2023-01-23T15:23:28.450Z,5.40
2023-01-23T15:26:23.729Z,5.40
2023-01-23T15:28:53.758Z,5.40
2023-01-23T15:31:27.739Z,5.40
2023-01-23T15:34:11.084Z,5.30
2023-01-23T15:36:39.638Z,5.30
2023-01-23T15:39:18.166Z,5.30
2023-01-23T15:41:50.819Z,5.30
2023-01-23T15:44:20.606Z,5.20
2023-01-23T15:46:48.825Z,5.20
2023-01-23T15:49:25.553Z,5.20
2023-01-23T15:51:57.310Z,5.20
2023-01-23T15:54:30.147Z,5.10
2023-01-23T15:57:06.998Z,5.10
2023-01-23T15:59:36.883Z,5.10
2023-01-23T16:02:05.203Z,5.10
2023-01-23T16:04:34.875Z,5.10
2023-01-23T16:07:07.631Z,5.10
2023-01-23T16:09:39.139Z,5.10
2023-01-23T16:12:11.757Z,5.10
2023-01-23T16:14:39.870Z,5.10
2023-01-23T16:17:16.301Z,5.10
2023-01-23T16:19:46.844Z,5.10
2023-01-23T16:22:18.929Z,5.00
2023-01-23T16:24:47.672Z,5.00
2023-01-23T16:27:18.847Z,5.00
2023-01-23T16:29:49.357Z,5.10
2023-01-23T16:32:17.701Z,5.00
2023-01-23T16:34:47.259Z,5.00
2023-01-23T16:37:17.776Z,5.00
2023-01-23T16:39:47.441Z,5.10
2023-01-23T16:42:22.365Z,5.00
2023-01-23T16:44:51.229Z,5.00
2023-01-23T16:47:19.293Z,5.00
2023-01-23T16:49:53.725Z,5.10
2023-01-23T16:52:25.146Z,5.10
2023-01-23T16:54:55.067Z,5.20
2023-01-23T16:57:23.841Z,5.20
2023-01-23T16:59:52.758Z,5.10
2023-01-23T17:02:23.058Z,5.10
2023-01-23T17:04:52.822Z,5.10
2023-01-23T17:07:21.255Z,5.10
2023-01-23T17:09:50.185Z,5.10
2023-01-23T17:12:21.914Z,5.10
2023-01-23T17:14:52.569Z,5.10
2023-01-23T17:17:27.823Z,5.10
2023-01-23T17:19:58.646Z,5.10
2023-01-23T17:22:30.376Z,5.10
2023-01-23T17:24:58.565Z,5.10
2023-01-23T17:27:26.664Z,5.10
2023-01-23T17:29:54.756Z,5.10
2023-01-23T17:32:29.452Z,5.10
2023-01-23T17:35:01.821Z,5.10
2023-01-23T17:37:31.685Z,5.10
2023-01-23T17:39:59.796Z,5.10
2023-01-23T17:42:28.088Z,5.10
2023-01-23T17:44:56.180Z,5.10
2023-01-23T17:47:24.307Z,5.20
2023-01-23T17:49:54.463Z,5.10
2023-01-23T17:52:25.081Z,5.10
2023-01-23T17:54:54.427Z,5.10
2023-01-23T17:57:22.759Z,5.10
2023-01-23T17:59:50.797Z,5.10
2023-01-23T18:02:27.876Z,5.20
2023-01-23T18:04:56.312Z,5.10
2023-01-23T18:07:25.673Z,5.10
2023-01-23T18:09:55.474Z,5.10
2023-01-23T18:12:31.472Z,5.10
2023-01-23T18:15:07.362Z,5.10
2023-01-23T18:17:43.202Z,5.10
2023-01-23T18:20:18.979Z,5.10
2023-01-23T18:22:49.513Z,5.10
2023-01-23T18:25:20.012Z,5.10
2023-01-23T18:27:51.496Z,5.10
2023-01-23T18:30:38.498Z,5.10
2023-01-23T18:33:20.364Z,5.10
2023-01-23T18:36:05.659Z,5.10
2023-01-23T18:38:45.074Z,5.10
2023-01-23T18:41:20.947Z,5.10
2023-01-23T18:43:52.656Z,5.10
2023-01-23T18:46:23.858Z,5.10
2023-01-23T18:48:53.221Z,5.10
2023-01-23T18:51:36.321Z,5.10
2023-01-23T18:54:18.655Z,5.20
2023-01-23T18:56:58.933Z,5.10
2023-01-23T18:59:34.285Z,5.10
2023-01-23T19:02:15.415Z,5.10
2023-01-23T19:04:50.682Z,5.10
2023-01-23T19:07:20.094Z,5.10
2023-01-23T19:09:50.744Z,5.10
2023-01-23T19:12:28.245Z,5.10
2023-01-23T19:15:23.908Z,5.10
2023-01-23T19:18:00.569Z,5.10
2023-01-23T19:20:35.876Z,5.10
2023-01-23T19:23:19.328Z,5.10
2023-01-23T19:25:49.239Z,5.10
2023-01-23T19:28:17.966Z,5.10
2023-01-23T19:30:46.737Z,5.10
2023-01-23T19:33:17.520Z,5.20
2023-01-23T19:35:46.450Z,5.20
2023-01-23T19:38:15.234Z,5.10
2023-01-23T19:40:46.233Z,5.10
2023-01-23T19:43:17.113Z,5.20
2023-01-23T19:45:45.790Z,5.10
2023-01-23T19:48:14.521Z,5.10
2023-01-23T19:50:43.764Z,5.10
2023-01-23T19:53:14.405Z,5.10
2023-01-23T19:55:42.633Z,5.10
2023-01-23T19:58:10.897Z,5.10
2023-01-23T20:00:40.336Z,5.10
2023-01-23T20:03:10.295Z,5.10
2023-01-23T20:05:40.178Z,5.00
2023-01-23T20:08:10.007Z,5.00
2023-01-23T20:10:38.231Z,5.00
2023-01-23T20:13:11.203Z,5.10
2023-01-23T20:15:40.572Z,5.00
2023-01-23T20:18:10.312Z,5.00
2023-01-23T20:20:38.354Z,5.00
2023-01-23T20:23:06.455Z,5.00
2023-01-23T20:25:34.662Z,5.00
2023-01-23T20:28:02.861Z,5.00
2023-01-23T20:30:32.909Z,5.00
2023-01-23T20:33:05.245Z,5.00
2023-01-23T20:35:33.517Z,5.00
2023-01-23T20:38:01.609Z,5.10
2023-01-23T20:40:29.666Z,5.10
2023-01-23T20:42:57.736Z,5.20
2023-01-23T20:45:26.652Z,5.20
2023-01-23T20:47:57.851Z,5.20
2023-01-23T20:50:27.299Z,5.10
2023-01-23T20:53:24.495Z,5.10
2023-01-23T20:55:54.154Z,5.00
2023-01-23T20:58:39.613Z,5.00
2023-01-23T21:01:07.814Z,5.00
2023-01-23T21:03:36.146Z,5.00
2023-01-23T21:06:05.922Z,5.00
2023-01-23T21:08:34.401Z,5.00
2023-01-23T21:11:05.829Z,5.00
2023-01-23T21:13:34.039Z,4.90
2023-01-23T21:16:04.753Z,5.00
2023-01-23T21:18:35.900Z,5.00
2023-01-23T21:21:06.967Z,4.90
2023-01-23T21:23:35.582Z,4.90
2023-01-23T21:26:04.946Z,4.90
2023-01-23T21:28:35.158Z,4.90
2023-01-23T21:31:09.902Z,4.90
2023-01-23T21:33:40.424Z,4.90
2023-01-23T21:36:10.441Z,4.90
2023-01-23T21:38:38.540Z,4.90
2023-01-23T21:41:07.088Z,4.90
2023-01-23T21:43:35.233Z,4.90
2023-01-23T21:46:03.785Z,4.90
2023-01-23T21:48:33.507Z,4.90
2023-01-23T21:51:05.969Z,4.90
2023-01-23T21:53:36.338Z,4.90
2023-01-23T21:56:04.911Z,4.90
2023-01-23T21:58:32.982Z,4.90
2023-01-23T22:01:20.467Z,4.90
2023-01-23T22:03:49.030Z,4.90
2023-01-23T22:06:17.434Z,4.90
2023-01-23T22:08:46.846Z,4.90
2023-01-23T22:11:15.147Z,4.90
2023-01-23T22:13:43.154Z,4.90
2023-01-23T22:16:11.979Z,4.90
2023-01-23T22:18:40.116Z,4.90
2023-01-23T22:21:08.804Z,4.90
2023-01-23T22:23:36.873Z,4.90
2023-01-23T22:26:08.097Z,5.00
2023-01-23T22:28:36.638Z,5.10
2023-01-23T22:31:10.033Z,5.10
2023-01-23T22:33:40.829Z,5.10
2023-01-23T22:36:11.880Z,5.00
2023-01-23T22:38:40.023Z,5.00
2023-01-23T22:41:12.953Z,5.00
2023-01-23T22:43:40.987Z,5.00
2023-01-23T22:46:11.246Z,5.00
2023-01-23T22:48:39.751Z,4.90
2023-01-23T22:51:15.914Z,5.00
2023-01-23T22:53:44.234Z,4.90
2023-01-23T22:56:14.008Z,5.00
2023-01-23T22:58:46.045Z,5.00
2023-01-23T23:01:14.565Z,4.90
2023-01-23T23:03:42.708Z,5.00
2023-01-23T23:06:13.211Z,5.00
2023-01-23T23:08:41.594Z,5.00
2023-01-23T23:11:12.124Z,4.90
2023-01-23T23:13:41.951Z,5.00
2023-01-23T23:16:13.807Z,5.00
2023-01-23T23:18:42.303Z,5.00
2023-01-23T23:21:14.288Z,5.00
2023-01-23T23:23:42.409Z,5.00
2023-01-23T23:26:11.341Z,5.00
2023-01-23T23:28:41.567Z,5.00
2023-01-23T23:31:10.916Z,5.00
2023-01-23T23:33:39.137Z,5.00
2023-01-23T23:36:08.022Z,5.00
2023-01-23T23:38:36.021Z,5.00
2023-01-23T23:41:06.622Z,5.00
2023-01-23T23:43:34.824Z,5.00
2023-01-23T23:46:07.013Z,5.00
2023-01-23T23:48:36.524Z,5.00
2023-01-23T23:51:07.172Z,5.00
2023-01-23T23:53:36.332Z,5.00
2023-01-23T23:56:05.112Z,5.00
2023-01-23T23:58:33.305Z,5.00
